sensor_id;sensor_type;location;lat;lon;timestamp;pressure;altitude;pressure_sealevel;temperature;humidity
63819;BME280;49970;54.976;73.248;2022-08-21T00:00:24;100924.00;;;11.96;86.50
63819;BME280;49970;54.976;73.248;2022-08-21T00:02:58;100917.19;;;11.92;86.39
63819;BME280;49970;54.976;73.248;2022-08-21T00:05:24;100924.38;;;11.90;86.57
63819;BME280;49970;54.976;73.248;2022-08-21T00:07:51;100923.34;;;11.93;86.79
63819;BME280;49970;54.976;73.248;2022-08-21T00:10:18;100921.34;;;11.96;86.76
63819;BME280;49970;54.976;73.248;2022-08-21T00:12:45;100933.97;;;12.06;86.63
63819;BME280;49970;54.976;73.248;2022-08-21T00:15:28;100933.78;;;12.09;86.64
63819;BME280;49970;54.976;73.248;2022-08-21T00:17:56;100921.25;;;12.11;86.63
63819;BME280;49970;54.976;73.248;2022-08-21T00:20:23;100924.53;;;12.14;86.78
63819;BME280;49970;54.976;73.248;2022-08-21T00:22:50;100925.31;;;12.16;86.97
63819;BME280;49970;54.976;73.248;2022-08-21T00:25:16;100920.59;;;12.20;86.75
63819;BME280;49970;54.976;73.248;2022-08-21T00:27:44;100926.69;;;12.22;86.93
63819;BME280;49970;54.976;73.248;2022-08-21T00:30:13;100925.59;;;12.25;86.78
63819;BME280;49970;54.976;73.248;2022-08-21T00:32:40;100926.47;;;12.25;86.71
63819;BME280;49970;54.976;73.248;2022-08-21T00:35:09;100914.38;;;12.21;86.68
63819;BME280;49970;54.976;73.248;2022-08-21T00:37:38;100927.22;;;12.27;86.62
63819;BME280;49970;54.976;73.248;2022-08-21T00:40:06;100927.31;;;12.26;86.76
63819;BME280;49970;54.976;73.248;2022-08-21T00:42:33;100926.38;;;12.27;86.79
63819;BME280;49970;54.976;73.248;2022-08-21T00:45:00;100923.59;;;12.28;86.73
63819;BME280;49970;54.976;73.248;2022-08-21T00:47:27;100932.31;;;12.30;86.98
63819;BME280;49970;54.976;73.248;2022-08-21T00:49:54;100919.78;;;12.32;86.84
63819;BME280;49970;54.976;73.248;2022-08-21T00:52:28;100921.59;;;12.32;86.88
63819;BME280;49970;54.976;73.248;2022-08-21T00:54:57;100925.00;;;12.34;86.96
63819;BME280;49970;54.976;73.248;2022-08-21T00:57:26;100921.25;;;12.36;87.20
63819;BME280;49970;54.976;73.248;2022-08-21T00:59:56;100919.56;;;12.35;87.07
63819;BME280;49970;54.976;73.248;2022-08-21T01:02:23;100920.34;;;12.37;87.16
63819;BME280;49970;54.976;73.248;2022-08-21T01:04:50;100928.06;;;12.40;87.44
63819;BME280;49970;54.976;73.248;2022-08-21T01:07:17;100924.34;;;12.43;87.31
63819;BME280;49970;54.976;73.248;2022-08-21T01:09:45;100920.63;;;12.45;87.44
63819;BME280;49970;54.976;73.248;2022-08-21T01:12:12;100917.88;;;12.47;87.55
63819;BME280;49970;54.976;73.248;2022-08-21T01:14:40;100917.56;;;12.52;87.29
63819;BME280;49970;54.976;73.248;2022-08-21T01:17:08;100923.50;;;12.55;87.58
63819;BME280;49970;54.976;73.248;2022-08-21T01:19:36;100926.81;;;12.59;87.64
63819;BME280;49970;54.976;73.248;2022-08-21T01:22:02;100927.66;;;12.59;87.62
63819;BME280;49970;54.976;73.248;2022-08-21T01:24:29;100927.44;;;12.62;87.68
63819;BME280;49970;54.976;73.248;2022-08-21T01:26:58;100903.75;;;12.59;87.66
63819;BME280;49970;54.976;73.248;2022-08-21T01:29:42;100915.00;;;12.63;87.96
63819;BME280;49970;54.976;73.248;2022-08-21T01:32:13;100924.16;;;12.71;87.85
63819;BME280;49970;54.976;73.248;2022-08-21T01:34:43;100912.75;;;12.69;88.05
63819;BME280;49970;54.976;73.248;2022-08-21T01:37:11;100928.16;;;12.77;88.08
63819;BME280;49970;54.976;73.248;2022-08-21T01:39:37;100918.19;;;12.81;87.70
63819;BME280;49970;54.976;73.248;2022-08-21T01:42:04;100921.47;;;12.84;87.86
63819;BME280;49970;54.976;73.248;2022-08-21T01:44:30;100921.22;;;12.87;88.11
63819;BME280;49970;54.976;73.248;2022-08-21T01:46:59;100913.88;;;12.91;88.08
63819;BME280;49970;54.976;73.248;2022-08-21T01:49:30;100914.66;;;12.93;88.05
63819;BME280;49970;54.976;73.248;2022-08-21T01:51:57;100917.94;;;12.96;87.96
63819;BME280;49970;54.976;73.248;2022-08-21T01:54:23;100920.16;;;13.03;87.87
63819;BME280;49970;54.976;73.248;2022-08-21T01:56:51;100921.41;;;13.10;88.19
63819;BME280;49970;54.976;73.248;2022-08-21T01:59:19;100910.44;;;13.14;87.93
63819;BME280;49970;54.976;73.248;2022-08-21T02:01:46;100915.44;;;13.19;87.70
63819;BME280;49970;54.976;73.248;2022-08-21T02:04:22;100920.44;;;13.24;87.79
63819;BME280;49970;54.976;73.248;2022-08-21T02:06:49;100920.22;;;13.27;87.78
63819;BME280;49970;54.976;73.248;2022-08-21T02:09:15;100916.47;;;13.29;87.71
63819;BME280;49970;54.976;73.248;2022-08-21T02:11:47;100918.84;;;13.34;87.60
63819;BME280;49970;54.976;73.248;2022-08-21T02:14:18;100914.09;;;13.37;87.81
63819;BME280;49970;54.976;73.248;2022-08-21T02:16:44;100913.25;;;13.37;87.60
63819;BME280;49970;54.976;73.248;2022-08-21T02:19:13;100915.28;;;13.46;87.99
63819;BME280;49970;54.976;73.248;2022-08-21T02:21:41;100919.28;;;13.52;87.46
63819;BME280;49970;54.976;73.248;2022-08-21T02:24:07;100912.78;;;13.56;87.59
63819;BME280;49970;54.976;73.248;2022-08-21T02:26:34;100906.47;;;13.57;88.08
63819;BME280;49970;54.976;73.248;2022-08-21T02:29:01;100908.34;;;13.67;88.43
63819;BME280;49970;54.976;73.248;2022-08-21T02:31:27;100913.09;;;13.75;88.10
63819;BME280;49970;54.976;73.248;2022-08-21T02:34:04;100911.88;;;13.79;87.98
63819;BME280;49970;54.976;73.248;2022-08-21T02:36:31;100894.84;;;13.82;87.92
63819;BME280;49970;54.976;73.248;2022-08-21T02:38:57;100915.22;;;13.94;87.78
63819;BME280;49970;54.976;73.248;2022-08-21T02:41:24;100907.25;;;13.94;87.67
63819;BME280;49970;54.976;73.248;2022-08-21T02:43:50;100913.56;;;14.04;87.61
63819;BME280;49970;54.976;73.248;2022-08-21T02:46:18;100918.56;;;14.09;88.08
63819;BME280;49970;54.976;73.248;2022-08-21T02:48:45;100914.91;;;14.10;87.55
63819;BME280;49970;54.976;73.248;2022-08-21T02:51:16;100922.56;;;14.14;87.87
63819;BME280;49970;54.976;73.248;2022-08-21T02:53:46;100918.69;;;14.18;88.02
63819;BME280;49970;54.976;73.248;2022-08-21T02:56:14;100925.59;;;14.21;87.68
63819;BME280;49970;54.976;73.248;2022-08-21T02:58:48;100912.25;;;14.21;87.48
63819;BME280;49970;54.976;73.248;2022-08-21T03:01:15;100923.66;;;14.23;87.78
63819;BME280;49970;54.976;73.248;2022-08-21T03:03:44;100921.00;;;14.23;88.04
63819;BME280;49970;54.976;73.248;2022-08-21T03:06:13;100901.13;;;14.16;87.88
63819;BME280;49970;54.976;73.248;2022-08-21T03:08:40;100922.69;;;14.24;88.06
63819;BME280;49970;54.976;73.248;2022-08-21T03:11:06;100919.06;;;14.25;88.29
63819;BME280;49970;54.976;73.248;2022-08-21T03:13:33;100928.78;;;14.26;88.43
63819;BME280;49970;54.976;73.248;2022-08-21T03:15:59;100922.59;;;14.26;88.21
63819;BME280;49970;54.976;73.248;2022-08-21T03:18:25;100929.38;;;14.30;88.25
63819;BME280;49970;54.976;73.248;2022-08-21T03:20:52;100935.31;;;14.33;88.91
63819;BME280;49970;54.976;73.248;2022-08-21T03:23:18;100925.25;;;14.37;88.57
63819;BME280;49970;54.976;73.248;2022-08-21T03:25:46;100924.41;;;14.36;88.30
63819;BME280;49970;54.976;73.248;2022-08-21T03:28:32;100930.50;;;14.38;88.53
63819;BME280;49970;54.976;73.248;2022-08-21T03:32:23;100935.56;;;14.41;88.57
63819;BME280;49970;54.976;73.248;2022-08-21T03:35:59;100938.13;;;14.43;88.75
63819;BME280;49970;54.976;73.248;2022-08-21T03:38:28;100929.53;;;14.39;89.64
63819;BME280;49970;54.976;73.248;2022-08-21T03:40:54;100922.25;;;14.30;89.49
63819;BME280;49970;54.976;73.248;2022-08-21T03:43:21;100947.44;;;14.37;90.88
63819;BME280;49970;54.976;73.248;2022-08-21T03:45:47;100946.47;;;14.38;91.67
63819;BME280;49970;54.976;73.248;2022-08-21T03:48:13;100944.03;;;14.35;92.38
63819;BME280;49970;54.976;73.248;2022-08-21T03:50:42;100935.66;;;14.29;92.70
63819;BME280;49970;54.976;73.248;2022-08-21T03:53:10;100943.03;;;14.25;92.92
63819;BME280;49970;54.976;73.248;2022-08-21T03:55:37;100951.50;;;14.19;93.97
63819;BME280;49970;54.976;73.248;2022-08-21T03:58:03;100945.44;;;14.17;94.45
63819;BME280;49970;54.976;73.248;2022-08-21T04:00:30;100947.50;;;14.13;94.51
63819;BME280;49970;54.976;73.248;2022-08-21T04:02:56;100955.59;;;14.12;95.00
63819;BME280;49970;54.976;73.248;2022-08-21T04:05:22;100954.88;;;14.10;95.27
63819;BME280;49970;54.976;73.248;2022-08-21T04:08:04;100957.53;;;14.10;95.44
63819;BME280;49970;54.976;73.248;2022-08-21T04:10:34;100954.03;;;14.09;95.95
63819;BME280;49970;54.976;73.248;2022-08-21T04:13:01;100957.53;;;14.10;96.22
63819;BME280;49970;54.976;73.248;2022-08-21T04:15:37;100956.78;;;14.08;96.38
63819;BME280;49970;54.976;73.248;2022-08-21T04:18:04;100959.22;;;14.11;95.88
63819;BME280;49970;54.976;73.248;2022-08-21T04:20:31;100963.84;;;14.09;96.11
63819;BME280;49970;54.976;73.248;2022-08-21T04:22:57;100957.91;;;14.05;96.09
63819;BME280;49970;54.976;73.248;2022-08-21T04:25:29;100959.72;;;14.05;96.03
63819;BME280;49970;54.976;73.248;2022-08-21T04:27:55;100972.16;;;14.04;96.26
63819;BME280;49970;54.976;73.248;2022-08-21T04:30:33;100965.25;;;14.02;96.52
63819;BME280;49970;54.976;73.248;2022-08-21T04:32:59;100963.56;;;14.01;96.67
63819;BME280;49970;54.976;73.248;2022-08-21T04:35:27;100953.34;;;13.94;96.84
63819;BME280;49970;54.976;73.248;2022-08-21T04:37:59;100961.56;;;13.91;96.64
63819;BME280;49970;54.976;73.248;2022-08-21T04:40:28;100963.63;;;13.88;97.09
63819;BME280;49970;54.976;73.248;2022-08-21T04:43:01;100967.03;;;13.90;97.18
63819;BME280;49970;54.976;73.248;2022-08-21T04:45:34;100955.88;;;13.85;97.25
63819;BME280;49970;54.976;73.248;2022-08-21T04:48:03;100966.03;;;13.91;97.61
63819;BME280;49970;54.976;73.248;2022-08-21T04:50:39;100961.47;;;13.93;97.81
63819;BME280;49970;54.976;73.248;2022-08-21T04:53:18;100970.81;;;13.99;97.73
63819;BME280;49970;54.976;73.248;2022-08-21T04:55:47;100966.22;;;14.01;98.14
63819;BME280;49970;54.976;73.248;2022-08-21T04:58:16;100960.03;;;14.00;98.44
63819;BME280;49970;54.976;73.248;2022-08-21T05:00:45;100967.06;;;14.01;98.67
63819;BME280;49970;54.976;73.248;2022-08-21T05:03:14;100963.31;;;14.04;98.69
63819;BME280;49970;54.976;73.248;2022-08-21T05:05:42;100961.41;;;14.06;98.80
63819;BME280;49970;54.976;73.248;2022-08-21T05:08:12;100958.97;;;14.03;98.76
63819;BME280;49970;54.976;73.248;2022-08-21T05:10:40;100959.59;;;14.06;98.74
63819;BME280;49970;54.976;73.248;2022-08-21T05:13:06;100969.16;;;14.09;98.86
63819;BME280;49970;54.976;73.248;2022-08-21T05:15:53;100962.66;;;14.13;98.57
63819;BME280;49970;54.976;73.248;2022-08-21T05:19:24;100946.03;;;14.09;98.96
63819;BME280;49970;54.976;73.248;2022-08-21T05:22:03;100945.97;;;14.22;99.28
63819;BME280;49970;54.976;73.248;2022-08-21T05:24:29;100954.22;;;14.30;99.42
63819;BME280;49970;54.976;73.248;2022-08-21T05:26:55;100952.03;;;14.35;99.33
63819;BME280;49970;54.976;73.248;2022-08-21T05:29:22;100961.28;;;14.42;99.82
63819;BME280;49970;54.976;73.248;2022-08-21T05:31:48;100960.06;;;14.47;99.19
63819;BME280;49970;54.976;73.248;2022-08-21T05:34:22;100961.56;;;14.51;99.11
63819;BME280;49970;54.976;73.248;2022-08-21T05:36:53;100962.84;;;14.45;99.36
63819;BME280;49970;54.976;73.248;2022-08-21T05:39:19;100966.59;;;14.42;99.33
63819;BME280;49970;54.976;73.248;2022-08-21T05:41:46;100960.31;;;14.43;99.83
63819;BME280;49970;54.976;73.248;2022-08-21T05:44:23;100959.94;;;14.48;99.68
63819;BME280;49970;54.976;73.248;2022-08-21T05:46:55;100966.16;;;14.49;100.00
63819;BME280;49970;54.976;73.248;2022-08-21T05:49:21;100958.53;;;14.55;100.00
63819;BME280;49970;54.976;73.248;2022-08-21T05:51:47;100965.44;;;14.58;99.91
63819;BME280;49970;54.976;73.248;2022-08-21T05:54:19;100967.25;;;14.57;99.87
63819;BME280;49970;54.976;73.248;2022-08-21T05:56:45;100954.28;;;14.53;99.68
63819;BME280;49970;54.976;73.248;2022-08-21T05:59:22;100962.28;;;14.53;99.53
63819;BME280;49970;54.976;73.248;2022-08-21T06:01:54;100958.28;;;14.58;99.67
63819;BME280;49970;54.976;73.248;2022-08-21T06:04:30;100959.88;;;14.61;99.42
63819;BME280;49970;54.976;73.248;2022-08-21T06:07:00;100961.34;;;14.65;98.95
63819;BME280;49970;54.976;73.248;2022-08-21T06:09:32;100961.19;;;14.66;98.81
63819;BME280;49970;54.976;73.248;2022-08-21T06:12:11;100962.56;;;14.72;99.24
63819;BME280;49970;54.976;73.248;2022-08-21T06:14:39;100961.59;;;14.73;99.03
63819;BME280;49970;54.976;73.248;2022-08-21T06:17:11;100958.66;;;14.65;99.02
63819;BME280;49970;54.976;73.248;2022-08-21T06:19:38;100960.25;;;14.67;98.47
63819;BME280;49970;54.976;73.248;2022-08-21T06:22:04;100960.25;;;14.67;98.71
63819;BME280;49970;54.976;73.248;2022-08-21T06:24:36;100958.78;;;14.75;98.76
63819;BME280;49970;54.976;73.248;2022-08-21T06:27:06;100959.63;;;14.75;99.16
63819;BME280;49970;54.976;73.248;2022-08-21T06:29:34;100957.34;;;14.82;99.04
63819;BME280;49970;54.976;73.248;2022-08-21T06:32:01;100958.94;;;14.84;98.60
63819;BME280;49970;54.976;73.248;2022-08-21T06:34:32;100933.84;;;14.76;98.40
63819;BME280;49970;54.976;73.248;2022-08-21T06:37:01;100948.63;;;14.91;98.60
63819;BME280;49970;54.976;73.248;2022-08-21T06:39:37;100960.38;;;14.88;98.38
63819;BME280;49970;54.976;73.248;2022-08-21T06:42:03;100957.13;;;14.85;98.89
63819;BME280;49970;54.976;73.248;2022-08-21T06:44:31;100952.72;;;14.84;99.33
63819;BME280;49970;54.976;73.248;2022-08-21T06:47:02;100955.53;;;14.82;99.47
63819;BME280;49970;54.976;73.248;2022-08-21T06:49:28;100960.72;;;14.84;99.42
63819;BME280;49970;54.976;73.248;2022-08-21T06:51:56;100963.38;;;14.84;100.00
63819;BME280;49970;54.976;73.248;2022-08-21T06:54:23;100958.94;;;14.84;100.00
63819;BME280;49970;54.976;73.248;2022-08-21T06:56:49;100956.50;;;14.81;100.00
63819;BME280;49970;54.976;73.248;2022-08-21T06:59:15;100947.75;;;14.79;100.00
63819;BME280;49970;54.976;73.248;2022-08-21T07:01:42;100957.47;;;14.80;100.00
63819;BME280;49970;54.976;73.248;2022-08-21T07:04:08;100960.25;;;14.79;100.00
63819;BME280;49970;54.976;73.248;2022-08-21T07:06:37;100946.06;;;14.78;100.00
63819;BME280;49970;54.976;73.248;2022-08-21T07:09:03;100954.81;;;14.80;100.00
63819;BME280;49970;54.976;73.248;2022-08-21T07:11:35;100944.13;;;14.69;100.00
63819;BME280;49970;54.976;73.248;2022-08-21T07:14:12;100954.19;;;14.77;100.00
63819;BME280;49970;54.976;73.248;2022-08-21T07:16:58;100959.03;;;14.83;100.00
63819;BME280;49970;54.976;73.248;2022-08-21T07:20:49;100954.19;;;14.88;100.00
63819;BME280;49970;54.976;73.248;2022-08-21T07:24:40;100948.50;;;14.92;100.00
63819;BME280;49970;54.976;73.248;2022-08-21T07:28:31;100949.00;;;14.98;100.00
63819;BME280;49970;54.976;73.248;2022-08-21T07:32:22;100964.50;;;14.92;100.00
63819;BME280;49970;54.976;73.248;2022-08-21T07:36:13;100965.47;;;14.80;100.00
63819;BME280;49970;54.976;73.248;2022-08-21T07:40:04;100965.91;;;14.63;100.00
63819;BME280;49970;54.976;73.248;2022-08-21T07:43:56;100971.97;;;14.54;100.00
63819;BME280;49970;54.976;73.248;2022-08-21T07:51:36;100980.03;;;14.41;100.00
63819;BME280;49970;54.976;73.248;2022-08-21T07:55:27;100978.56;;;14.37;100.00
63819;BME280;49970;54.976;73.248;2022-08-21T07:59:18;100987.94;;;14.42;100.00
63819;BME280;49970;54.976;73.248;2022-08-21T08:03:17;101002.09;;;14.43;100.00
63819;BME280;49970;54.976;73.248;2022-08-21T08:06:48;101003.16;;;14.40;100.00
63819;BME280;49970;54.976;73.248;2022-08-21T08:09:15;101010.44;;;14.38;100.00
63819;BME280;49970;54.976;73.248;2022-08-21T08:11:42;101014.19;;;14.36;100.00
63819;BME280;49970;54.976;73.248;2022-08-21T08:14:09;100997.19;;;14.26;100.00
63819;BME280;49970;54.976;73.248;2022-08-21T08:16:36;101008.09;;;14.23;100.00
63819;BME280;49970;54.976;73.248;2022-08-21T08:19:03;101015.94;;;14.13;100.00
63819;BME280;49970;54.976;73.248;2022-08-21T08:21:29;101017.78;;;14.00;100.00
63819;BME280;49970;54.976;73.248;2022-08-21T08:23:56;101003.97;;;13.94;100.00
63819;BME280;49970;54.976;73.248;2022-08-21T08:26:22;100998.25;;;13.88;100.00
63819;BME280;49970;54.976;73.248;2022-08-21T08:28:48;101016.09;;;13.99;100.00
63819;BME280;49970;54.976;73.248;2022-08-21T08:31:15;101012.22;;;14.03;100.00
63819;BME280;49970;54.976;73.248;2022-08-21T08:33:41;101011.88;;;14.07;100.00
63819;BME280;49970;54.976;73.248;2022-08-21T08:36:16;101011.09;;;14.18;99.57
63819;BME280;49970;54.976;73.248;2022-08-21T08:38:43;101013.06;;;14.27;98.89
63819;BME280;49970;54.976;73.248;2022-08-21T08:41:16;101019.75;;;14.33;98.83
63819;BME280;49970;54.976;73.248;2022-08-21T08:43:51;101013.34;;;14.35;98.79
63819;BME280;49970;54.976;73.248;2022-08-21T08:46:24;101020.22;;;14.38;98.83
63819;BME280;49970;54.976;73.248;2022-08-21T08:49:10;101017.91;;;14.22;97.47
63819;BME280;49970;54.976;73.248;2022-08-21T08:54:15;101017.91;;;14.22;97.11
63819;BME280;49970;54.976;73.248;2022-08-21T08:57:03;101019.59;;;14.23;97.10
63819;BME280;49970;54.976;73.248;2022-08-21T09:00:53;101015.94;;;14.24;96.47
63819;BME280;49970;54.976;73.248;2022-08-21T09:04:45;101017.50;;;14.15;95.97
63819;BME280;49970;54.976;73.248;2022-08-21T09:09:00;101017.13;;;14.09;96.30
63819;BME280;49970;54.976;73.248;2022-08-21T09:27:11;101031.78;;;14.14;94.15
63819;BME280;49970;54.976;73.248;2022-08-21T09:29:43;101032.13;;;14.10;93.06
63819;BME280;49970;54.976;73.248;2022-08-21T09:32:28;101029.91;;;14.04;92.52
63819;BME280;49970;54.976;73.248;2022-08-21T09:34:59;101026.31;;;14.05;92.84
63819;BME280;49970;54.976;73.248;2022-08-21T09:37:32;101025.13;;;14.09;92.30
63819;BME280;49970;54.976;73.248;2022-08-21T09:40:13;101022.19;;;14.12;92.68
63819;BME280;49970;54.976;73.248;2022-08-21T09:42:41;101031.56;;;14.17;92.16
63819;BME280;49970;54.976;73.248;2022-08-21T09:45:12;101018.25;;;14.17;92.20
63819;BME280;49970;54.976;73.248;2022-08-21T09:47:41;101026.84;;;14.21;91.36
63819;BME280;49970;54.976;73.248;2022-08-21T09:50:24;101021.75;;;14.18;91.48
63819;BME280;49970;54.976;73.248;2022-08-21T09:53:00;101035.34;;;14.26;91.48
63819;BME280;49970;54.976;73.248;2022-08-21T09:55:39;101046.72;;;14.28;91.33
63819;BME280;49970;54.976;73.248;2022-08-21T09:58:33;101037.19;;;14.26;91.54
63819;BME280;49970;54.976;73.248;2022-08-21T10:01:03;101038.75;;;14.28;91.69
63819;BME280;49970;54.976;73.248;2022-08-21T10:03:30;101048.69;;;14.26;91.48
63819;BME280;49970;54.976;73.248;2022-08-21T10:05:59;101041.41;;;14.28;91.47
63819;BME280;49970;54.976;73.248;2022-08-21T10:08:28;101052.06;;;14.28;92.09
63819;BME280;49970;54.976;73.248;2022-08-21T10:11:01;101058.38;;;14.27;92.11
63819;BME280;49970;54.976;73.248;2022-08-21T10:19:42;101056.50;;;14.16;90.17
63819;BME280;49970;54.976;73.248;2022-08-21T10:22:24;101058.59;;;14.24;89.69
63819;BME280;49970;54.976;73.248;2022-08-21T10:25:27;101050.25;;;14.29;89.66
63819;BME280;49970;54.976;73.248;2022-08-21T10:28:26;101055.97;;;14.35;89.67
63819;BME280;49970;54.976;73.248;2022-08-21T10:31:07;101068.97;;;14.40;89.16
63819;BME280;49970;54.976;73.248;2022-08-21T10:36:36;101075.53;;;14.47;89.88
63819;BME280;49970;54.976;73.248;2022-08-21T10:41:53;101077.03;;;14.51;88.79
63819;BME280;49970;54.976;73.248;2022-08-21T10:45:07;101078.56;;;14.42;88.65
63819;BME280;49970;54.976;73.248;2022-08-21T10:47:35;101079.47;;;14.30;88.73
63819;BME280;49970;54.976;73.248;2022-08-21T10:55:48;101081.16;;;14.07;89.46
63819;BME280;49970;54.976;73.248;2022-08-21T10:58:28;101075.94;;;14.06;89.15
63819;BME280;49970;54.976;73.248;2022-08-21T11:01:13;101078.09;;;14.01;88.64
63819;BME280;49970;54.976;73.248;2022-08-21T11:03:46;101075.09;;;14.05;88.92
63819;BME280;49970;54.976;73.248;2022-08-21T11:06:24;101083.47;;;14.12;88.62
63819;BME280;49970;54.976;73.248;2022-08-21T11:09:14;101066.41;;;14.14;88.41
63819;BME280;49970;54.976;73.248;2022-08-21T11:12:00;101063.63;;;14.16;88.48
63819;BME280;49970;54.976;73.248;2022-08-21T11:14:41;101075.94;;;14.30;87.21
63819;BME280;49970;54.976;73.248;2022-08-21T11:17:18;101079.56;;;14.29;86.40
63819;BME280;49970;54.976;73.248;2022-08-21T11:20:02;101077.53;;;14.32;85.76
63819;BME280;49970;54.976;73.248;2022-08-21T11:22:45;101080.94;;;14.34;85.40
63819;BME280;49970;54.976;73.248;2022-08-21T11:25:34;101081.66;;;14.36;85.26
63819;BME280;49970;54.976;73.248;2022-08-21T11:28:12;101073.88;;;14.33;85.11
63819;BME280;49970;54.976;73.248;2022-08-21T11:33:59;101082.50;;;14.37;83.82
63819;BME280;49970;54.976;73.248;2022-08-21T11:36:56;101086.97;;;14.36;83.11
63819;BME280;49970;54.976;73.248;2022-08-21T11:42:15;101082.28;;;14.40;83.58
63819;BME280;49970;54.976;73.248;2022-08-21T11:45:21;101091.13;;;14.40;82.37
63819;BME280;49970;54.976;73.248;2022-08-21T11:50:46;101098.63;;;14.35;82.81
63819;BME280;49970;54.976;73.248;2022-08-21T11:53:30;101101.91;;;14.39;82.28
63819;BME280;49970;54.976;73.248;2022-08-21T11:56:08;101102.53;;;14.42;81.75
63819;BME280;49970;54.976;73.248;2022-08-21T12:01:09;101098.69;;;14.47;80.93
63819;BME280;49970;54.976;73.248;2022-08-21T12:03:44;101076.53;;;14.33;79.04
63819;BME280;49970;54.976;73.248;2022-08-21T12:06:29;101091.25;;;14.39;78.31
63819;BME280;49970;54.976;73.248;2022-08-21T12:09:04;101101.44;;;14.45;78.24
63819;BME280;49970;54.976;73.248;2022-08-21T12:11:31;101091.88;;;14.42;78.00
63819;BME280;49970;54.976;73.248;2022-08-21T12:16:37;101108.72;;;14.43;76.79
63819;BME280;49970;54.976;73.248;2022-08-21T12:19:05;101103.72;;;14.38;77.14
63819;BME280;49970;54.976;73.248;2022-08-21T12:21:31;101096.09;;;14.34;77.17
63819;BME280;49970;54.976;73.248;2022-08-21T12:26:52;101102.91;;;14.25;77.10
63819;BME280;49970;54.976;73.248;2022-08-21T12:29:26;101108.50;;;14.22;76.93
63819;BME280;49970;54.976;73.248;2022-08-21T12:31:57;101111.38;;;14.19;76.84
63819;BME280;49970;54.976;73.248;2022-08-21T12:34:40;101121.28;;;14.17;77.48
63819;BME280;49970;54.976;73.248;2022-08-21T12:37:20;101118.72;;;14.15;77.30
63819;BME280;49970;54.976;73.248;2022-08-21T12:39:51;101117.03;;;14.14;77.08
63819;BME280;49970;54.976;73.248;2022-08-21T12:42:24;101114.50;;;14.13;77.85
63819;BME280;49970;54.976;73.248;2022-08-21T12:45:00;101117.69;;;14.18;77.30
63819;BME280;49970;54.976;73.248;2022-08-21T12:48:02;101120.56;;;14.15;77.46
63819;BME280;49970;54.976;73.248;2022-08-21T12:50:53;101126.94;;;14.12;77.39
63819;BME280;49970;54.976;73.248;2022-08-21T12:54:29;101117.03;;;14.14;77.76
63819;BME280;49970;54.976;73.248;2022-08-21T12:57:00;101124.63;;;14.08;77.82
63819;BME280;49970;54.976;73.248;2022-08-21T12:59:27;101125.25;;;14.11;77.95
63819;BME280;49970;54.976;73.248;2022-08-21T13:01:53;101129.59;;;14.12;77.69
63819;BME280;49970;54.976;73.248;2022-08-21T13:04:34;101120.88;;;14.10;77.44
63819;BME280;49970;54.976;73.248;2022-08-21T13:07:06;101131.66;;;14.09;77.45
63819;BME280;49970;54.976;73.248;2022-08-21T13:09:50;101113.44;;;14.03;77.76
63819;BME280;49970;54.976;73.248;2022-08-21T13:12:20;101129.22;;;14.06;77.28
63819;BME280;49970;54.976;73.248;2022-08-21T13:14:48;101136.25;;;14.07;76.43
63819;BME280;49970;54.976;73.248;2022-08-21T13:17:20;101141.06;;;14.02;76.63
63819;BME280;49970;54.976;73.248;2022-08-21T13:19:58;101141.28;;;13.99;76.36
63819;BME280;49970;54.976;73.248;2022-08-21T13:22:27;101145.97;;;13.95;76.41
63819;BME280;49970;54.976;73.248;2022-08-21T13:24:54;101156.53;;;13.97;76.13
63819;BME280;49970;54.976;73.248;2022-08-21T13:27:26;101155.03;;;13.92;76.18
63819;BME280;49970;54.976;73.248;2022-08-21T13:30:27;101160.78;;;13.86;76.20
63819;BME280;49970;54.976;73.248;2022-08-21T13:32:58;101156.66;;;13.82;76.10
63819;BME280;49970;54.976;73.248;2022-08-21T13:35:26;101161.00;;;13.83;76.41
63819;BME280;49970;54.976;73.248;2022-08-21T13:37:54;101163.78;;;13.82;76.78
63819;BME280;49970;54.976;73.248;2022-08-21T13:40:30;101151.00;;;13.74;76.44
63819;BME280;49970;54.976;73.248;2022-08-21T13:43:03;101165.59;;;13.81;76.82
63819;BME280;49970;54.976;73.248;2022-08-21T13:45:31;101159.31;;;13.82;77.06
63819;BME280;49970;54.976;73.248;2022-08-21T13:48:00;101175.19;;;13.84;76.97
63819;BME280;49970;54.976;73.248;2022-08-21T13:50:27;101165.81;;;13.78;76.85
63819;BME280;49970;54.976;73.248;2022-08-21T13:52:56;101174.44;;;13.82;77.79
63819;BME280;49970;54.976;73.248;2022-08-21T13:55:24;101170.09;;;13.81;77.86
63819;BME280;49970;54.976;73.248;2022-08-21T13:58:02;101177.44;;;13.77;77.06
63819;BME280;49970;54.976;73.248;2022-08-21T14:00:50;101172.44;;;13.73;75.72
63819;BME280;49970;54.976;73.248;2022-08-21T14:03:58;101166.28;;;13.59;73.65
63819;BME280;49970;54.976;73.248;2022-08-21T14:06:32;101180.31;;;13.61;73.07
63819;BME280;49970;54.976;73.248;2022-08-21T14:09:01;101178.72;;;13.59;72.93
63819;BME280;49970;54.976;73.248;2022-08-21T14:11:34;101181.47;;;13.57;73.43
63819;BME280;49970;54.976;73.248;2022-08-21T14:14:28;101173.81;;;13.53;73.81
63819;BME280;49970;54.976;73.248;2022-08-21T14:16:58;101187.91;;;13.55;73.88
63819;BME280;49970;54.976;73.248;2022-08-21T14:19:34;101189.06;;;13.51;73.06
63819;BME280;49970;54.976;73.248;2022-08-21T14:22:35;101198.09;;;13.48;73.16